createdAt,value
2019-04-27T06:31:59.368Z,11.21
2019-04-27T06:37:58.717Z,11.19
2019-04-27T06:43:59.276Z,11.11
2019-04-27T06:49:58.839Z,10.99
2019-04-27T06:55:58.803Z,11.09
2019-04-27T07:02:00.570Z,11.18
2019-04-27T07:07:59.151Z,11.23
2019-04-27T07:13:59.424Z,11.20
2019-04-27T07:19:59.469Z,10.99
2019-04-27T07:25:59.862Z,10.87
2019-04-27T07:31:59.658Z,10.80
2019-04-27T07:37:58.955Z,10.71
2019-04-27T07:43:58.777Z,10.70
2019-04-27T07:50:01.674Z,10.64
2019-04-27T07:55:59.338Z,10.76
2019-04-27T08:01:59.174Z,11.05
2019-04-27T08:08:00.174Z,10.99
2019-04-27T08:13:58.932Z,10.93
2019-04-27T08:19:59.584Z,11.00
2019-04-27T08:25:58.968Z,11.12
2019-04-27T08:31:58.855Z,11.03
2019-04-27T08:37:59.404Z,10.92
2019-04-27T08:43:58.837Z,10.91
2019-04-27T08:49:59.168Z,10.90
2019-04-27T08:55:59.244Z,10.86
2019-04-27T09:01:58.844Z,10.86
2019-04-27T09:07:59.724Z,10.91
2019-04-27T09:14:16.884Z,10.91
2019-04-27T09:19:59.117Z,10.86
2019-04-27T09:25:59.502Z,11.45
2019-04-27T09:32:01.528Z,11.56
2019-04-27T09:37:58.867Z,11.73
2019-04-27T09:43:58.813Z,12.02
2019-04-27T09:49:58.781Z,11.82
2019-04-27T09:55:58.885Z,11.75
2019-04-27T10:01:58.885Z,11.89
2019-04-27T10:07:58.811Z,12.16
2019-04-27T10:13:58.872Z,12.35
2019-04-27T10:19:58.819Z,12.44
2019-04-27T10:25:58.920Z,12.77
2019-04-27T10:31:58.965Z,12.54
2019-04-27T10:37:58.816Z,12.08
2019-04-27T10:43:58.892Z,12.12
2019-04-27T10:49:58.890Z,12.61
2019-04-27T10:55:58.942Z,13.20
2019-04-27T11:01:58.839Z,12.74
2019-04-27T11:07:58.897Z,13.00
2019-04-27T11:14:00.924Z,13.30
2019-04-27T11:19:58.874Z,12.53
2019-04-27T11:26:02.315Z,11.72
2019-04-27T11:31:58.948Z,11.71
2019-04-27T11:37:58.899Z,11.44
2019-04-27T11:43:58.834Z,11.63
2019-04-27T11:49:58.864Z,11.80
2019-04-27T11:55:58.923Z,12.02
2019-04-27T12:01:58.956Z,12.47
2019-04-27T12:07:58.929Z,13.13
2019-04-27T12:13:58.856Z,13.21
2019-04-27T12:19:58.968Z,13.03
2019-04-27T12:25:58.885Z,12.63
2019-04-27T12:32:45.690Z,12.68
2019-04-27T12:38:46.705Z,12.92
2019-04-27T12:44:44.903Z,12.73
2019-04-27T12:50:46.234Z,12.45
2019-04-27T12:56:45.778Z,12.48
2019-04-27T13:02:45.001Z,12.53
2019-04-27T13:08:45.796Z,12.85
2019-04-27T13:14:45.759Z,12.59
2019-04-27T13:20:44.908Z,12.21
2019-04-27T13:26:45.647Z,11.60
2019-04-27T13:32:45.960Z,10.03
2019-04-27T13:38:46.635Z,9.60
2019-04-27T13:44:45.603Z,9.47
2019-04-27T13:50:45.711Z,8.88
2019-04-27T13:56:46.005Z,8.67
2019-04-27T14:02:45.009Z,8.64
2019-04-27T14:08:45.045Z,9.01
2019-04-27T14:14:45.095Z,9.30
2019-04-27T14:20:46.037Z,9.24
2019-04-27T14:26:44.994Z,9.17
2019-04-27T14:32:45.014Z,9.18
